Airfield :
LOGIN :

Register | Disclaimer

   EN    FR    IT 

 










Legend :    VFR   Marginal VFR   IFR   Intensive IFR   Very Intensive IFR
Visi :
Ceiling :
>= 8 km
>= 3000ft
5 to 8 km
1000 to 3000 ft
1500m to 5 km
500 to 1000 ft
800 to 1500m
200 to 500 ft
< 800m
< 200 ft
Symbols :   Thunderstorms  Fog  Heavy snow  Heavy precipitations  Wind > 20 kt
SIGMETs :     Misc.  Thunderstorms  Icing  Turbulence  Mountain Waves  Volcanic Ashes






- Airport Elevation : 63 ft
- IATA code : BZM


EHWO - Woensdrecht Airbase

CURRENT METAR :
  • 090655Z AUTO 20007KT 160V240 9999 SCT010 OVC034 04/02 Q1001 GRN

EXPIRED METARs :
  • 090629Z AUTO 20007KT 170V240 9999 BKN010 BKN022 BKN038 04/02 Q1002 GRN
  • 090625Z AUTO 20008KT 170V230 9999 SCT010 BKN039 BKN063 04/02 Q1002 GRN
  • 090616Z AUTO 19008KT 160V230 9999 FEW011 BKN037 OVC063 04/02 Q1002 BLU
  • 090610Z AUTO 20005KT 170V240 9999 BKN011 BKN023 OVC038 04/02 Q1002 GRN
  • 090555Z AUTO 20007KT 160V240 9999 FEW012 BKN021 BKN025 04/02 Q1001 WHT
  • 090550Z AUTO 20006KT 160V230 9999 FEW012 SCT022 OVC069 04/02 Q1001 WHT
  • 090536Z AUTO 19006KT 160V230 9999 FEW012 BKN021 BKN065 03/02 Q1001 WHT
  • 090525Z AUTO 19006KT 150V230 9999 FEW039 BKN076 BKN082 03/01 Q1001 BLU
  • 090458Z AUTO 19007KT 160V240 9999 FEW035 BKN040 03/01 Q1001 BLU
  • 090455Z AUTO 19006KT 160V240 9999 FEW039 03/01 Q1001 BLU
  • 090425Z AUTO 20008KT 170V250 9999 FEW086 04/01 Q1001 BLU

TAF COR TAF EHWO
Valid from the 09 at 06:00 until the 09 at 18:00 UTC


090606Z 0906/0918 18008KT 9999 SCT020 BKN040
BECMG 0906/0908 21011KT SCT012 BKN025
TEMPO 0908/0916 4500 -RA SCT007 BKN010
BECMG 0915/0917 23008KT FEW015 BKN025



MET'MAP, your aeronautical weather chart ! - Copyright ORBIFLY December 2007 - Disclaimer

ORBIFLY MET'MAP TEAM :

Programming & Development : Alexandra Zaïnal
Concept & original design : Baudouin d'Aumeries
Assistance for programming : Marc-Olivier Méhu
Technical & hardware support : Manuel Goepfert

Contact : metmap@orbifly.com




SOURCES & CREDITS :

   NOAA